sensor_id;sensor_type;location;lat;lon;timestamp;P1;durP1;ratioP1;P2;durP2;ratioP2
41219;SDS011;26951;47.338;9.196;2023-04-06T00:02:37;9.63;;;6.93;;
41219;SDS011;26951;47.338;9.196;2023-04-06T00:05:22;8.10;;;6.43;;
41219;SDS011;26951;47.338;9.196;2023-04-06T00:08:06;9.93;;;6.70;;
41219;SDS011;26951;47.338;9.196;2023-04-06T00:10:51;11.82;;;6.78;;
41219;SDS011;26951;47.338;9.196;2023-04-06T00:13:35;11.20;;;7.15;;
41219;SDS011;26951;47.338;9.196;2023-04-06T00:16:19;10.88;;;7.47;;
41219;SDS011;26951;47.338;9.196;2023-04-06T00:19:03;9.48;;;6.40;;
41219;SDS011;26951;47.338;9.196;2023-04-06T00:21:48;9.70;;;6.28;;
41219;SDS011;26951;47.338;9.196;2023-04-06T00:24:32;8.80;;;6.78;;
41219;SDS011;26951;47.338;9.196;2023-04-06T00:27:16;11.77;;;7.30;;
41219;SDS011;26951;47.338;9.196;2023-04-06T00:30:00;9.65;;;6.95;;
41219;SDS011;26951;47.338;9.196;2023-04-06T00:32:44;10.00;;;7.38;;
41219;SDS011;26951;47.338;9.196;2023-04-06T00:35:28;9.98;;;7.25;;
41219;SDS011;26951;47.338;9.196;2023-04-06T00:38:13;10.18;;;7.45;;
41219;SDS011;26951;47.338;9.196;2023-04-06T00:40:58;10.35;;;6.57;;
41219;SDS011;26951;47.338;9.196;2023-04-06T00:43:43;11.35;;;7.38;;
41219;SDS011;26951;47.338;9.196;2023-04-06T00:46:26;9.93;;;6.47;;
41219;SDS011;26951;47.338;9.196;2023-04-06T00:49:11;10.93;;;7.53;;
41219;SDS011;26951;47.338;9.196;2023-04-06T00:51:56;10.82;;;7.30;;
41219;SDS011;26951;47.338;9.196;2023-04-06T00:54:40;10.10;;;6.97;;
41219;SDS011;26951;47.338;9.196;2023-04-06T00:57:24;11.20;;;6.72;;
41219;SDS011;26951;47.338;9.196;2023-04-06T01:00:09;12.35;;;7.15;;
41219;SDS011;26951;47.338;9.196;2023-04-06T01:02:54;8.65;;;6.43;;
41219;SDS011;26951;47.338;9.196;2023-04-06T01:05:39;10.80;;;7.63;;
41219;SDS011;26951;47.338;9.196;2023-04-06T01:08:24;10.73;;;7.20;;
41219;SDS011;26951;47.338;9.196;2023-04-06T01:11:09;8.67;;;6.07;;
41219;SDS011;26951;47.338;9.196;2023-04-06T01:13:53;10.00;;;7.28;;
41219;SDS011;26951;47.338;9.196;2023-04-06T01:16:38;9.68;;;6.63;;
41219;SDS011;26951;47.338;9.196;2023-04-06T01:19:22;9.70;;;6.55;;
41219;SDS011;26951;47.338;9.196;2023-04-06T01:22:07;10.57;;;7.00;;
41219;SDS011;26951;47.338;9.196;2023-04-06T01:24:51;9.90;;;7.07;;
41219;SDS011;26951;47.338;9.196;2023-04-06T01:27:36;11.93;;;6.65;;
41219;SDS011;26951;47.338;9.196;2023-04-06T01:30:20;9.75;;;6.32;;
41219;SDS011;26951;47.338;9.196;2023-04-06T01:33:04;10.23;;;6.93;;
41219;SDS011;26951;47.338;9.196;2023-04-06T01:35:48;11.75;;;7.70;;
41219;SDS011;26951;47.338;9.196;2023-04-06T01:38:32;10.05;;;7.15;;
41219;SDS011;26951;47.338;9.196;2023-04-06T01:41:17;11.02;;;7.32;;
41219;SDS011;26951;47.338;9.196;2023-04-06T01:44:01;13.50;;;6.80;;
41219;SDS011;26951;47.338;9.196;2023-04-06T01:46:45;10.13;;;7.07;;
41219;SDS011;26951;47.338;9.196;2023-04-06T01:49:29;10.45;;;6.93;;
41219;SDS011;26951;47.338;9.196;2023-04-06T01:52:13;8.95;;;6.80;;
41219;SDS011;26951;47.338;9.196;2023-04-06T01:54:59;10.30;;;6.88;;
41219;SDS011;26951;47.338;9.196;2023-04-06T01:57:43;10.60;;;7.10;;
41219;SDS011;26951;47.338;9.196;2023-04-06T02:00:28;9.73;;;6.50;;
41219;SDS011;26951;47.338;9.196;2023-04-06T02:03:12;9.95;;;7.07;;
41219;SDS011;26951;47.338;9.196;2023-04-06T02:05:58;9.10;;;6.90;;
41219;SDS011;26951;47.338;9.196;2023-04-06T02:08:42;9.40;;;6.40;;
41219;SDS011;26951;47.338;9.196;2023-04-06T02:11:26;9.35;;;6.40;;
41219;SDS011;26951;47.338;9.196;2023-04-06T02:14:10;12.15;;;7.25;;
41219;SDS011;26951;47.338;9.196;2023-04-06T02:16:55;10.05;;;6.80;;
41219;SDS011;26951;47.338;9.196;2023-04-06T02:19:39;8.52;;;5.78;;
41219;SDS011;26951;47.338;9.196;2023-04-06T02:22:23;10.32;;;7.15;;
41219;SDS011;26951;47.338;9.196;2023-04-06T02:25:08;8.17;;;6.30;;
41219;SDS011;26951;47.338;9.196;2023-04-06T02:27:53;8.52;;;6.15;;
41219;SDS011;26951;47.338;9.196;2023-04-06T02:30:37;8.27;;;6.47;;
41219;SDS011;26951;47.338;9.196;2023-04-06T02:33:22;10.88;;;6.22;;
41219;SDS011;26951;47.338;9.196;2023-04-06T02:36:06;8.73;;;6.70;;
41219;SDS011;26951;47.338;9.196;2023-04-06T02:38:51;8.23;;;5.72;;
41219;SDS011;26951;47.338;9.196;2023-04-06T02:41:35;10.60;;;7.85;;
41219;SDS011;26951;47.338;9.196;2023-04-06T02:44:19;9.18;;;6.60;;
41219;SDS011;26951;47.338;9.196;2023-04-06T02:47:03;9.23;;;6.07;;
41219;SDS011;26951;47.338;9.196;2023-04-06T02:49:47;11.20;;;7.05;;
41219;SDS011;26951;47.338;9.196;2023-04-06T02:52:31;9.57;;;6.35;;
41219;SDS011;26951;47.338;9.196;2023-04-06T02:55:15;10.95;;;6.97;;
41219;SDS011;26951;47.338;9.196;2023-04-06T02:58:00;9.15;;;6.30;;
41219;SDS011;26951;47.338;9.196;2023-04-06T03:00:44;9.65;;;6.47;;
41219;SDS011;26951;47.338;9.196;2023-04-06T03:03:29;10.50;;;6.73;;
41219;SDS011;26951;47.338;9.196;2023-04-06T03:06:13;9.85;;;7.25;;
41219;SDS011;26951;47.338;9.196;2023-04-06T03:08:58;9.23;;;6.20;;
41219;SDS011;26951;47.338;9.196;2023-04-06T03:11:42;10.18;;;7.05;;
41219;SDS011;26951;47.338;9.196;2023-04-06T03:14:27;7.90;;;6.45;;
41219;SDS011;26951;47.338;9.196;2023-04-06T03:17:11;9.25;;;6.68;;
41219;SDS011;26951;47.338;9.196;2023-04-06T03:19:56;10.85;;;7.32;;
41219;SDS011;26951;47.338;9.196;2023-04-06T03:22:40;10.80;;;6.32;;
41219;SDS011;26951;47.338;9.196;2023-04-06T03:25:24;9.70;;;6.75;;
41219;SDS011;26951;47.338;9.196;2023-04-06T03:28:09;9.90;;;7.05;;
41219;SDS011;26951;47.338;9.196;2023-04-06T03:30:53;8.60;;;6.60;;
41219;SDS011;26951;47.338;9.196;2023-04-06T03:33:37;9.80;;;7.10;;
41219;SDS011;26951;47.338;9.196;2023-04-06T03:36:21;8.48;;;5.60;;
41219;SDS011;26951;47.338;9.196;2023-04-06T03:39:05;10.82;;;6.32;;
41219;SDS011;26951;47.338;9.196;2023-04-06T03:41:50;9.95;;;6.55;;
41219;SDS011;26951;47.338;9.196;2023-04-06T03:44:34;10.45;;;6.53;;
41219;SDS011;26951;47.338;9.196;2023-04-06T03:47:18;8.85;;;6.55;;
41219;SDS011;26951;47.338;9.196;2023-04-06T03:50:02;8.40;;;6.53;;
41219;SDS011;26951;47.338;9.196;2023-04-06T03:52:46;10.73;;;7.30;;
41219;SDS011;26951;47.338;9.196;2023-04-06T03:55:30;9.05;;;6.13;;
41219;SDS011;26951;47.338;9.196;2023-04-06T03:58:14;9.65;;;6.82;;
41219;SDS011;26951;47.338;9.196;2023-04-06T04:00:58;10.43;;;6.82;;
41219;SDS011;26951;47.338;9.196;2023-04-06T04:03:43;11.18;;;6.20;;
41219;SDS011;26951;47.338;9.196;2023-04-06T04:06:27;10.00;;;6.57;;
41219;SDS011;26951;47.338;9.196;2023-04-06T04:09:11;9.82;;;6.97;;
41219;SDS011;26951;47.338;9.196;2023-04-06T04:11:56;10.65;;;6.55;;
41219;SDS011;26951;47.338;9.196;2023-04-06T04:14:40;9.45;;;6.57;;
41219;SDS011;26951;47.338;9.196;2023-04-06T04:17:24;10.60;;;6.32;;
41219;SDS011;26951;47.338;9.196;2023-04-06T04:20:08;9.43;;;6.60;;
41219;SDS011;26951;47.338;9.196;2023-04-06T04:22:52;9.32;;;6.65;;
41219;SDS011;26951;47.338;9.196;2023-04-06T04:25:36;8.90;;;6.47;;
41219;SDS011;26951;47.338;9.196;2023-04-06T04:28:21;10.38;;;6.63;;
41219;SDS011;26951;47.338;9.196;2023-04-06T04:31:05;10.25;;;6.53;;
41219;SDS011;26951;47.338;9.196;2023-04-06T04:33:49;10.85;;;7.32;;
41219;SDS011;26951;47.338;9.196;2023-04-06T04:36:33;8.25;;;5.97;;
41219;SDS011;26951;47.338;9.196;2023-04-06T04:39:17;11.50;;;6.40;;
41219;SDS011;26951;47.338;9.196;2023-04-06T04:42:02;11.40;;;6.97;;
41219;SDS011;26951;47.338;9.196;2023-04-06T04:44:46;10.48;;;6.78;;
41219;SDS011;26951;47.338;9.196;2023-04-06T04:47:30;9.70;;;6.72;;
41219;SDS011;26951;47.338;9.196;2023-04-06T04:50:14;12.43;;;6.95;;
41219;SDS011;26951;47.338;9.196;2023-04-06T04:52:58;16.08;;;9.10;;
41219;SDS011;26951;47.338;9.196;2023-04-06T04:55:42;11.68;;;8.30;;
41219;SDS011;26951;47.338;9.196;2023-04-06T04:58:26;12.07;;;7.38;;
41219;SDS011;26951;47.338;9.196;2023-04-06T05:01:10;10.18;;;7.00;;
41219;SDS011;26951;47.338;9.196;2023-04-06T05:03:54;11.07;;;7.20;;
41219;SDS011;26951;47.338;9.196;2023-04-06T05:06:38;9.63;;;6.80;;
41219;SDS011;26951;47.338;9.196;2023-04-06T05:09:22;11.38;;;6.93;;
41219;SDS011;26951;47.338;9.196;2023-04-06T05:12:07;11.00;;;7.53;;
41219;SDS011;26951;47.338;9.196;2023-04-06T05:14:53;13.75;;;7.88;;
41219;SDS011;26951;47.338;9.196;2023-04-06T05:17:37;12.52;;;8.55;;
41219;SDS011;26951;47.338;9.196;2023-04-06T05:20:22;10.48;;;6.90;;
41219;SDS011;26951;47.338;9.196;2023-04-06T05:23:06;12.18;;;7.75;;
41219;SDS011;26951;47.338;9.196;2023-04-06T05:25:50;11.75;;;8.10;;
41219;SDS011;26951;47.338;9.196;2023-04-06T05:28:35;12.57;;;7.68;;
41219;SDS011;26951;47.338;9.196;2023-04-06T05:31:20;13.77;;;7.23;;
41219;SDS011;26951;47.338;9.196;2023-04-06T05:34:04;13.40;;;7.70;;
41219;SDS011;26951;47.338;9.196;2023-04-06T05:36:48;12.45;;;7.82;;
41219;SDS011;26951;47.338;9.196;2023-04-06T05:39:32;12.38;;;7.30;;
41219;SDS011;26951;47.338;9.196;2023-04-06T05:42:16;14.13;;;8.05;;
41219;SDS011;26951;47.338;9.196;2023-04-06T05:45:00;12.02;;;6.80;;
41219;SDS011;26951;47.338;9.196;2023-04-06T05:47:44;11.18;;;7.78;;
41219;SDS011;26951;47.338;9.196;2023-04-06T05:50:29;12.10;;;7.22;;
41219;SDS011;26951;47.338;9.196;2023-04-06T05:53:13;13.00;;;7.93;;
41219;SDS011;26951;47.338;9.196;2023-04-06T05:56:00;10.98;;;7.18;;
41219;SDS011;26951;47.338;9.196;2023-04-06T05:58:45;15.07;;;8.35;;
41219;SDS011;26951;47.338;9.196;2023-04-06T06:01:29;14.60;;;8.23;;
41219;SDS011;26951;47.338;9.196;2023-04-06T06:04:13;13.63;;;7.53;;
41219;SDS011;26951;47.338;9.196;2023-04-06T06:06:57;12.15;;;7.05;;
41219;SDS011;26951;47.338;9.196;2023-04-06T06:09:41;10.57;;;7.10;;
41219;SDS011;26951;47.338;9.196;2023-04-06T06:12:26;9.82;;;6.60;;
41219;SDS011;26951;47.338;9.196;2023-04-06T06:15:10;9.68;;;6.68;;
41219;SDS011;26951;47.338;9.196;2023-04-06T06:17:54;9.98;;;7.75;;
41219;SDS011;26951;47.338;9.196;2023-04-06T06:20:39;9.27;;;6.60;;
41219;SDS011;26951;47.338;9.196;2023-04-06T06:23:23;9.55;;;6.57;;
41219;SDS011;26951;47.338;9.196;2023-04-06T06:26:07;8.95;;;6.63;;
41219;SDS011;26951;47.338;9.196;2023-04-06T06:28:51;10.15;;;7.30;;
41219;SDS011;26951;47.338;9.196;2023-04-06T06:31:35;9.00;;;7.00;;
41219;SDS011;26951;47.338;9.196;2023-04-06T06:34:20;9.43;;;6.43;;
41219;SDS011;26951;47.338;9.196;2023-04-06T06:37:05;8.88;;;7.03;;
41219;SDS011;26951;47.338;9.196;2023-04-06T06:39:49;9.02;;;6.97;;
41219;SDS011;26951;47.338;9.196;2023-04-06T06:42:33;10.15;;;7.03;;
41219;SDS011;26951;47.338;9.196;2023-04-06T06:45:18;8.57;;;7.00;;
41219;SDS011;26951;47.338;9.196;2023-04-06T06:48:03;8.52;;;6.05;;
41219;SDS011;26951;47.338;9.196;2023-04-06T06:50:48;9.45;;;7.07;;
41219;SDS011;26951;47.338;9.196;2023-04-06T06:53:32;7.45;;;5.75;;
41219;SDS011;26951;47.338;9.196;2023-04-06T06:56:16;8.27;;;6.43;;
41219;SDS011;26951;47.338;9.196;2023-04-06T06:59:00;10.25;;;6.15;;
41219;SDS011;26951;47.338;9.196;2023-04-06T07:01:45;7.95;;;6.55;;
41219;SDS011;26951;47.338;9.196;2023-04-06T07:04:29;8.27;;;6.63;;
41219;SDS011;26951;47.338;9.196;2023-04-06T07:07:13;8.63;;;5.82;;
41219;SDS011;26951;47.338;9.196;2023-04-06T07:09:57;7.30;;;5.88;;
41219;SDS011;26951;47.338;9.196;2023-04-06T07:12:42;8.98;;;5.70;;
41219;SDS011;26951;47.338;9.196;2023-04-06T07:15:26;8.27;;;6.05;;
41219;SDS011;26951;47.338;9.196;2023-04-06T07:18:10;7.38;;;6.30;;
41219;SDS011;26951;47.338;9.196;2023-04-06T07:20:54;9.02;;;5.97;;
41219;SDS011;26951;47.338;9.196;2023-04-06T07:23:38;8.40;;;6.07;;
41219;SDS011;26951;47.338;9.196;2023-04-06T07:26:22;7.57;;;6.53;;
41219;SDS011;26951;47.338;9.196;2023-04-06T07:29:06;6.85;;;5.05;;
41219;SDS011;26951;47.338;9.196;2023-04-06T07:31:51;8.45;;;5.45;;
41219;SDS011;26951;47.338;9.196;2023-04-06T07:34:35;9.70;;;6.20;;
41219;SDS011;26951;47.338;9.196;2023-04-06T07:37:19;6.82;;;5.50;;
41219;SDS011;26951;47.338;9.196;2023-04-06T07:40:03;6.68;;;5.28;;
41219;SDS011;26951;47.338;9.196;2023-04-06T07:42:48;7.97;;;5.70;;
41219;SDS011;26951;47.338;9.196;2023-04-06T07:45:33;7.15;;;5.43;;
41219;SDS011;26951;47.338;9.196;2023-04-06T07:48:17;9.55;;;5.85;;
41219;SDS011;26951;47.338;9.196;2023-04-06T07:51:02;7.25;;;5.45;;
41219;SDS011;26951;47.338;9.196;2023-04-06T07:53:50;10.82;;;6.15;;
41219;SDS011;26951;47.338;9.196;2023-04-06T07:56:34;8.37;;;5.77;;
41219;SDS011;26951;47.338;9.196;2023-04-06T07:59:19;7.32;;;5.70;;
41219;SDS011;26951;47.338;9.196;2023-04-06T08:02:03;7.78;;;4.95;;
41219;SDS011;26951;47.338;9.196;2023-04-06T08:04:48;6.88;;;5.45;;
41219;SDS011;26951;47.338;9.196;2023-04-06T08:07:33;7.53;;;4.93;;
41219;SDS011;26951;47.338;9.196;2023-04-06T08:10:18;6.97;;;5.15;;
41219;SDS011;26951;47.338;9.196;2023-04-06T08:13:02;6.15;;;5.07;;
41219;SDS011;26951;47.338;9.196;2023-04-06T08:15:46;8.25;;;5.40;;
41219;SDS011;26951;47.338;9.196;2023-04-06T08:18:30;7.35;;;5.55;;
41219;SDS011;26951;47.338;9.196;2023-04-06T08:21:14;6.18;;;5.38;;
41219;SDS011;26951;47.338;9.196;2023-04-06T08:23:59;5.30;;;4.57;;
41219;SDS011;26951;47.338;9.196;2023-04-06T08:26:44;5.72;;;4.90;;
41219;SDS011;26951;47.338;9.196;2023-04-06T08:29:29;8.20;;;5.77;;
41219;SDS011;26951;47.338;9.196;2023-04-06T08:32:13;6.63;;;4.88;;
41219;SDS011;26951;47.338;9.196;2023-04-06T08:34:57;6.45;;;5.13;;
41219;SDS011;26951;47.338;9.196;2023-04-06T08:37:41;5.63;;;4.60;;
41219;SDS011;26951;47.338;9.196;2023-04-06T08:40:26;7.15;;;5.03;;
41219;SDS011;26951;47.338;9.196;2023-04-06T08:43:12;5.20;;;4.70;;
41219;SDS011;26951;47.338;9.196;2023-04-06T08:45:58;7.80;;;5.45;;
41219;SDS011;26951;47.338;9.196;2023-04-06T08:48:42;5.55;;;4.25;;
41219;SDS011;26951;47.338;9.196;2023-04-06T08:51:27;6.05;;;5.38;;
41219;SDS011;26951;47.338;9.196;2023-04-06T08:56:56;6.22;;;5.03;;
41219;SDS011;26951;47.338;9.196;2023-04-06T08:59:41;7.35;;;4.70;;
41219;SDS011;26951;47.338;9.196;2023-04-06T09:02:26;11.30;;;5.53;;
41219;SDS011;26951;47.338;9.196;2023-04-06T09:05:10;5.78;;;4.55;;
41219;SDS011;26951;47.338;9.196;2023-04-06T09:07:55;6.50;;;4.20;;
41219;SDS011;26951;47.338;9.196;2023-04-06T09:10:40;5.22;;;4.53;;
41219;SDS011;26951;47.338;9.196;2023-04-06T09:13:25;5.55;;;5.03;;
41219;SDS011;26951;47.338;9.196;2023-04-06T09:16:09;5.55;;;4.80;;
41219;SDS011;26951;47.338;9.196;2023-04-06T09:18:53;5.40;;;4.80;;
41219;SDS011;26951;47.338;9.196;2023-04-06T09:21:38;5.85;;;4.93;;
41219;SDS011;26951;47.338;9.196;2023-04-06T09:24:23;6.05;;;5.05;;
41219;SDS011;26951;47.338;9.196;2023-04-06T09:27:09;6.68;;;5.25;;
41219;SDS011;26951;47.338;9.196;2023-04-06T09:30:01;5.60;;;4.97;;
41219;SDS011;26951;47.338;9.196;2023-04-06T09:32:48;6.65;;;5.38;;
41219;SDS011;26951;47.338;9.196;2023-04-06T09:35:34;5.30;;;4.50;;
41219;SDS011;26951;47.338;9.196;2023-04-06T09:38:18;5.13;;;4.13;;
41219;SDS011;26951;47.338;9.196;2023-04-06T09:41:02;7.90;;;5.18;;
41219;SDS011;26951;47.338;9.196;2023-04-06T09:43:47;6.90;;;5.05;;
41219;SDS011;26951;47.338;9.196;2023-04-06T09:46:32;6.13;;;5.47;;
41219;SDS011;26951;47.338;9.196;2023-04-06T09:49:17;5.25;;;4.75;;
41219;SDS011;26951;47.338;9.196;2023-04-06T09:52:03;6.22;;;4.97;;
41219;SDS011;26951;47.338;9.196;2023-04-06T09:54:50;6.80;;;4.65;;
41219;SDS011;26951;47.338;9.196;2023-04-06T10:00:29;5.50;;;4.90;;
41219;SDS011;26951;47.338;9.196;2023-04-06T10:06:14;6.03;;;4.65;;
41219;SDS011;26951;47.338;9.196;2023-04-06T10:09:02;5.63;;;4.80;;
41219;SDS011;26951;47.338;9.196;2023-04-06T10:11:48;6.72;;;4.93;;
41219;SDS011;26951;47.338;9.196;2023-04-06T10:14:34;5.18;;;4.63;;
41219;SDS011;26951;47.338;9.196;2023-04-06T10:17:21;6.72;;;5.00;;
41219;SDS011;26951;47.338;9.196;2023-04-06T10:26:03;6.15;;;4.05;;
41219;SDS011;26951;47.338;9.196;2023-04-06T10:28:48;4.57;;;4.03;;
41219;SDS011;26951;47.338;9.196;2023-04-06T10:31:39;5.18;;;4.50;;
41219;SDS011;26951;47.338;9.196;2023-04-06T10:34:33;4.90;;;4.07;;
41219;SDS011;26951;47.338;9.196;2023-04-06T10:37:19;5.03;;;4.53;;
41219;SDS011;26951;47.338;9.196;2023-04-06T10:40:04;5.25;;;4.40;;
41219;SDS011;26951;47.338;9.196;2023-04-06T10:42:49;6.05;;;4.45;;
41219;SDS011;26951;47.338;9.196;2023-04-06T10:45:33;6.45;;;4.20;;
41219;SDS011;26951;47.338;9.196;2023-04-06T10:48:19;5.50;;;4.18;;
41219;SDS011;26951;47.338;9.196;2023-04-06T10:51:06;5.03;;;3.90;;
41219;SDS011;26951;47.338;9.196;2023-04-06T10:53:52;6.22;;;4.70;;
41219;SDS011;26951;47.338;9.196;2023-04-06T10:59:22;7.25;;;4.97;;
41219;SDS011;26951;47.338;9.196;2023-04-06T11:02:08;7.13;;;4.13;;
41219;SDS011;26951;47.338;9.196;2023-04-06T11:04:58;10.32;;;5.13;;
41219;SDS011;26951;47.338;9.196;2023-04-06T11:07:43;7.32;;;5.03;;
41219;SDS011;26951;47.338;9.196;2023-04-06T11:10:28;4.85;;;3.80;;
41219;SDS011;26951;47.338;9.196;2023-04-06T11:13:13;5.32;;;4.18;;
41219;SDS011;26951;47.338;9.196;2023-04-06T11:15:58;5.38;;;3.30;;
41219;SDS011;26951;47.338;9.196;2023-04-06T11:18:48;5.03;;;3.47;;
41219;SDS011;26951;47.338;9.196;2023-04-06T11:21:44;4.38;;;3.55;;
41219;SDS011;26951;47.338;9.196;2023-04-06T11:24:32;4.13;;;3.30;;
41219;SDS011;26951;47.338;9.196;2023-04-06T11:27:16;5.65;;;4.47;;
41219;SDS011;26951;47.338;9.196;2023-04-06T11:30:02;4.45;;;3.55;;
41219;SDS011;26951;47.338;9.196;2023-04-06T11:32:48;4.38;;;3.80;;
41219;SDS011;26951;47.338;9.196;2023-04-06T11:35:33;7.05;;;4.03;;
41219;SDS011;26951;47.338;9.196;2023-04-06T11:38:18;3.95;;;3.50;;
41219;SDS011;26951;47.338;9.196;2023-04-06T11:41:04;5.05;;;4.47;;
41219;SDS011;26951;47.338;9.196;2023-04-06T11:43:48;5.13;;;4.22;;
41219;SDS011;26951;47.338;9.196;2023-04-06T11:46:33;5.68;;;4.57;;
41219;SDS011;26951;47.338;9.196;2023-04-06T11:49:17;4.20;;;3.80;;
41219;SDS011;26951;47.338;9.196;2023-04-06T11:52:01;5.22;;;4.05;;
41219;SDS011;26951;47.338;9.196;2023-04-06T11:54:49;4.47;;;3.65;;
41219;SDS011;26951;47.338;9.196;2023-04-06T11:57:35;4.35;;;3.45;;
41219;SDS011;26951;47.338;9.196;2023-04-06T12:00:19;3.70;;;3.30;;
41219;SDS011;26951;47.338;9.196;2023-04-06T12:03:04;4.60;;;3.45;;
41219;SDS011;26951;47.338;9.196;2023-04-06T12:05:49;7.27;;;4.10;;
41219;SDS011;26951;47.338;9.196;2023-04-06T12:08:34;4.63;;;3.58;;
41219;SDS011;26951;47.338;9.196;2023-04-06T12:11:18;5.05;;;3.92;;
41219;SDS011;26951;47.338;9.196;2023-04-06T12:14:04;6.28;;;3.40;;
41219;SDS011;26951;47.338;9.196;2023-04-06T12:16:49;5.68;;;4.05;;
41219;SDS011;26951;47.338;9.196;2023-04-06T12:19:33;4.82;;;3.90;;
41219;SDS011;26951;47.338;9.196;2023-04-06T12:22:17;5.15;;;3.72;;
41219;SDS011;26951;47.338;9.196;2023-04-06T12:25:02;6.30;;;4.17;;
41219;SDS011;26951;47.338;9.196;2023-04-06T12:27:47;5.65;;;3.92;;
41219;SDS011;26951;47.338;9.196;2023-04-06T12:30:31;5.03;;;3.80;;
41219;SDS011;26951;47.338;9.196;2023-04-06T12:33:16;4.68;;;3.67;;
41219;SDS011;26951;47.338;9.196;2023-04-06T12:36:00;4.82;;;4.05;;
41219;SDS011;26951;47.338;9.196;2023-04-06T12:38:44;5.68;;;3.97;;
41219;SDS011;26951;47.338;9.196;2023-04-06T12:41:32;4.93;;;3.70;;
41219;SDS011;26951;47.338;9.196;2023-04-06T12:44:16;4.82;;;4.00;;
41219;SDS011;26951;47.338;9.196;2023-04-06T12:47:00;5.63;;;4.35;;
41219;SDS011;26951;47.338;9.196;2023-04-06T12:49:46;6.03;;;4.85;;
41219;SDS011;26951;47.338;9.196;2023-04-06T12:52:30;5.25;;;4.35;;
41219;SDS011;26951;47.338;9.196;2023-04-06T12:55:15;6.25;;;4.70;;
41219;SDS011;26951;47.338;9.196;2023-04-06T12:57:59;5.97;;;4.70;;
41219;SDS011;26951;47.338;9.196;2023-04-06T13:00:44;6.68;;;4.78;;
41219;SDS011;26951;47.338;9.196;2023-04-06T13:03:28;4.60;;;3.95;;
41219;SDS011;26951;47.338;9.196;2023-04-06T13:06:14;6.47;;;5.10;;
41219;SDS011;26951;47.338;9.196;2023-04-06T13:08:58;4.60;;;4.10;;
41219;SDS011;26951;47.338;9.196;2023-04-06T13:11:43;8.43;;;4.93;;
41219;SDS011;26951;47.338;9.196;2023-04-06T13:14:28;4.75;;;3.95;;
41219;SDS011;26951;47.338;9.196;2023-04-06T13:17:13;4.22;;;3.78;;
41219;SDS011;26951;47.338;9.196;2023-04-06T13:19:57;5.95;;;4.25;;
41219;SDS011;26951;47.338;9.196;2023-04-06T13:22:41;5.38;;;4.25;;
41219;SDS011;26951;47.338;9.196;2023-04-06T13:25:25;5.97;;;4.65;;
41219;SDS011;26951;47.338;9.196;2023-04-06T13:28:10;5.95;;;4.70;;
41219;SDS011;26951;47.338;9.196;2023-04-06T13:30:54;5.22;;;4.15;;
41219;SDS011;26951;47.338;9.196;2023-04-06T13:33:39;4.82;;;3.95;;
41219;SDS011;26951;47.338;9.196;2023-04-06T13:36:25;9.90;;;4.82;;
41219;SDS011;26951;47.338;9.196;2023-04-06T13:41:54;4.90;;;4.40;;
41219;SDS011;26951;47.338;9.196;2023-04-06T13:44:41;6.40;;;4.65;;
41219;SDS011;26951;47.338;9.196;2023-04-06T13:47:25;4.45;;;3.80;;
41219;SDS011;26951;47.338;9.196;2023-04-06T13:50:11;6.50;;;4.35;;
41219;SDS011;26951;47.338;9.196;2023-04-06T13:52:55;4.75;;;4.20;;
41219;SDS011;26951;47.338;9.196;2023-04-06T13:55:39;5.70;;;4.03;;
41219;SDS011;26951;47.338;9.196;2023-04-06T13:58:24;6.37;;;4.90;;
41219;SDS011;26951;47.338;9.196;2023-04-06T14:01:09;6.43;;;4.80;;
41219;SDS011;26951;47.338;9.196;2023-04-06T14:03:53;5.15;;;4.10;;
41219;SDS011;26951;47.338;9.196;2023-04-06T14:06:37;5.25;;;4.32;;
41219;SDS011;26951;47.338;9.196;2023-04-06T14:09:22;5.80;;;5.20;;
41219;SDS011;26951;47.338;9.196;2023-04-06T14:12:06;5.68;;;5.07;;
41219;SDS011;26951;47.338;9.196;2023-04-06T14:14:50;6.43;;;4.95;;
41219;SDS011;26951;47.338;9.196;2023-04-06T14:17:34;5.15;;;4.00;;
41219;SDS011;26951;47.338;9.196;2023-04-06T14:20:18;6.43;;;5.15;;
41219;SDS011;26951;47.338;9.196;2023-04-06T14:23:03;5.18;;;4.57;;
41219;SDS011;26951;47.338;9.196;2023-04-06T14:25:47;5.45;;;4.75;;
41219;SDS011;26951;47.338;9.196;2023-04-06T14:28:32;6.03;;;4.95;;
41219;SDS011;26951;47.338;9.196;2023-04-06T14:31:16;6.22;;;4.55;;
41219;SDS011;26951;47.338;9.196;2023-04-06T14:34:01;9.50;;;5.00;;
41219;SDS011;26951;47.338;9.196;2023-04-06T14:36:46;5.88;;;4.75;;
41219;SDS011;26951;47.338;9.196;2023-04-06T14:39:30;5.35;;;4.13;;
41219;SDS011;26951;47.338;9.196;2023-04-06T14:42:15;7.97;;;4.60;;
41219;SDS011;26951;47.338;9.196;2023-04-06T14:44:59;5.80;;;4.15;;
41219;SDS011;26951;47.338;9.196;2023-04-06T14:47:43;6.07;;;4.57;;
41219;SDS011;26951;47.338;9.196;2023-04-06T14:50:27;6.20;;;4.63;;
41219;SDS011;26951;47.338;9.196;2023-04-06T14:53:11;4.78;;;3.63;;
41219;SDS011;26951;47.338;9.196;2023-04-06T14:55:56;5.00;;;4.13;;
41219;SDS011;26951;47.338;9.196;2023-04-06T14:58:42;6.57;;;4.15;;
41219;SDS011;26951;47.338;9.196;2023-04-06T15:01:26;5.45;;;3.97;;
41219;SDS011;26951;47.338;9.196;2023-04-06T15:04:10;5.90;;;3.70;;
41219;SDS011;26951;47.338;9.196;2023-04-06T15:06:55;5.28;;;3.92;;
41219;SDS011;26951;47.338;9.196;2023-04-06T15:09:39;4.85;;;3.80;;
41219;SDS011;26951;47.338;9.196;2023-04-06T15:12:23;4.95;;;4.15;;
41219;SDS011;26951;47.338;9.196;2023-04-06T15:15:07;4.35;;;3.40;;
41219;SDS011;26951;47.338;9.196;2023-04-06T15:17:51;4.95;;;3.70;;
41219;SDS011;26951;47.338;9.196;2023-04-06T15:20:36;5.32;;;4.07;;
41219;SDS011;26951;47.338;9.196;2023-04-06T15:23:20;4.60;;;3.72;;
41219;SDS011;26951;47.338;9.196;2023-04-06T15:26:04;4.60;;;3.80;;
41219;SDS011;26951;47.338;9.196;2023-04-06T15:28:48;4.97;;;4.25;;
41219;SDS011;26951;47.338;9.196;2023-04-06T15:31:33;6.85;;;4.57;;
41219;SDS011;26951;47.338;9.196;2023-04-06T15:34:18;6.13;;;4.13;;
41219;SDS011;26951;47.338;9.196;2023-04-06T15:37:02;5.50;;;3.95;;
41219;SDS011;26951;47.338;9.196;2023-04-06T15:39:48;6.18;;;4.40;;
41219;SDS011;26951;47.338;9.196;2023-04-06T15:42:32;4.45;;;3.63;;
41219;SDS011;26951;47.338;9.196;2023-04-06T15:45:16;5.63;;;3.75;;
41219;SDS011;26951;47.338;9.196;2023-04-06T15:48:00;4.55;;;3.97;;
41219;SDS011;26951;47.338;9.196;2023-04-06T15:50:44;4.57;;;3.83;;
41219;SDS011;26951;47.338;9.196;2023-04-06T15:53:29;5.90;;;4.20;;
41219;SDS011;26951;47.338;9.196;2023-04-06T15:56:13;4.28;;;3.88;;
41219;SDS011;26951;47.338;9.196;2023-04-06T15:58:58;4.93;;;3.93;;
41219;SDS011;26951;47.338;9.196;2023-04-06T16:01:44;4.93;;;3.70;;
41219;SDS011;26951;47.338;9.196;2023-04-06T16:04:29;4.32;;;3.85;;
41219;SDS011;26951;47.338;9.196;2023-04-06T16:07:13;4.25;;;3.22;;
41219;SDS011;26951;47.338;9.196;2023-04-06T16:09:57;3.83;;;3.13;;
41219;SDS011;26951;47.338;9.196;2023-04-06T16:12:42;5.55;;;3.30;;
41219;SDS011;26951;47.338;9.196;2023-04-06T16:15:26;4.65;;;3.60;;
41219;SDS011;26951;47.338;9.196;2023-04-06T16:18:10;4.18;;;3.28;;
41219;SDS011;26951;47.338;9.196;2023-04-06T16:20:54;4.53;;;3.30;;
41219;SDS011;26951;47.338;9.196;2023-04-06T16:23:39;4.57;;;3.42;;
41219;SDS011;26951;47.338;9.196;2023-04-06T16:26:24;5.95;;;3.70;;
41219;SDS011;26951;47.338;9.196;2023-04-06T16:29:10;4.13;;;3.35;;
41219;SDS011;26951;47.338;9.196;2023-04-06T16:31:54;5.07;;;3.90;;
41219;SDS011;26951;47.338;9.196;2023-04-06T16:34:38;5.38;;;3.38;;
41219;SDS011;26951;47.338;9.196;2023-04-06T16:37:23;6.22;;;3.70;;
41219;SDS011;26951;47.338;9.196;2023-04-06T16:40:09;5.75;;;4.00;;
41219;SDS011;26951;47.338;9.196;2023-04-06T16:42:53;6.72;;;3.35;;
41219;SDS011;26951;47.338;9.196;2023-04-06T16:45:38;4.78;;;3.72;;
41219;SDS011;26951;47.338;9.196;2023-04-06T16:48:22;3.88;;;3.40;;
41219;SDS011;26951;47.338;9.196;2023-04-06T16:51:07;4.78;;;3.53;;